sensor_id;sensor_type;location;lat;lon;timestamp;pressure;altitude;pressure_sealevel;temperature
80581;BMP180;1474;51.460;7.150;2023-11-19T00:02:21;99901.00;;;15.40
80581;BMP180;1474;51.460;7.150;2023-11-19T00:04:47;99895.00;;;15.40
80581;BMP180;1474;51.460;7.150;2023-11-19T00:07:13;99900.00;;;15.40
80581;BMP180;1474;51.460;7.150;2023-11-19T00:09:40;99908.00;;;15.40
80581;BMP180;1474;51.460;7.150;2023-11-19T00:12:07;99913.00;;;15.40
80581;BMP180;1474;51.460;7.150;2023-11-19T00:14:33;99912.00;;;15.40
80581;BMP180;1474;51.460;7.150;2023-11-19T00:17:00;99906.00;;;15.50
80581;BMP180;1474;51.460;7.150;2023-11-19T00:19:26;99919.00;;;15.50
80581;BMP180;1474;51.460;7.150;2023-11-19T00:21:52;99933.00;;;15.50
80581;BMP180;1474;51.460;7.150;2023-11-19T00:24:18;99931.00;;;15.50
80581;BMP180;1474;51.460;7.150;2023-11-19T00:26:45;99933.00;;;15.40
80581;BMP180;1474;51.460;7.150;2023-11-19T00:29:10;99928.00;;;15.50
80581;BMP180;1474;51.460;7.150;2023-11-19T00:31:36;99934.00;;;15.40
80581;BMP180;1474;51.460;7.150;2023-11-19T00:34:02;99938.00;;;15.50
80581;BMP180;1474;51.460;7.150;2023-11-19T00:36:28;99932.00;;;15.50
80581;BMP180;1474;51.460;7.150;2023-11-19T00:38:55;99934.00;;;15.50
80581;BMP180;1474;51.460;7.150;2023-11-19T00:41:20;99920.00;;;15.50
80581;BMP180;1474;51.460;7.150;2023-11-19T00:43:48;99922.00;;;15.50
80581;BMP180;1474;51.460;7.150;2023-11-19T00:46:14;99915.00;;;15.50
80581;BMP180;1474;51.460;7.150;2023-11-19T00:48:40;99912.00;;;15.50
80581;BMP180;1474;51.460;7.150;2023-11-19T00:51:06;99905.00;;;15.50
80581;BMP180;1474;51.460;7.150;2023-11-19T00:53:32;99913.00;;;15.50
80581;BMP180;1474;51.460;7.150;2023-11-19T00:56:00;99903.00;;;15.50
80581;BMP180;1474;51.460;7.150;2023-11-19T00:58:25;99908.00;;;15.50
80581;BMP180;1474;51.460;7.150;2023-11-19T01:00:52;99900.00;;;15.50
80581;BMP180;1474;51.460;7.150;2023-11-19T01:03:18;99904.00;;;15.50
80581;BMP180;1474;51.460;7.150;2023-11-19T01:05:43;99888.00;;;15.50
80581;BMP180;1474;51.460;7.150;2023-11-19T01:08:10;99889.00;;;15.50
80581;BMP180;1474;51.460;7.150;2023-11-19T01:10:39;99894.00;;;15.50
80581;BMP180;1474;51.460;7.150;2023-11-19T01:13:05;99894.00;;;15.50
80581;BMP180;1474;51.460;7.150;2023-11-19T01:15:32;99893.00;;;15.50
80581;BMP180;1474;51.460;7.150;2023-11-19T01:17:58;99890.00;;;15.50
80581;BMP180;1474;51.460;7.150;2023-11-19T01:20:24;99889.00;;;15.50
80581;BMP180;1474;51.460;7.150;2023-11-19T01:22:50;99889.00;;;15.50
80581;BMP180;1474;51.460;7.150;2023-11-19T01:25:16;99896.00;;;15.50
80581;BMP180;1474;51.460;7.150;2023-11-19T01:27:42;99900.00;;;15.50
80581;BMP180;1474;51.460;7.150;2023-11-19T01:30:09;99894.00;;;15.50
80581;BMP180;1474;51.460;7.150;2023-11-19T01:32:39;99900.00;;;15.50
80581;BMP180;1474;51.460;7.150;2023-11-19T01:35:06;99900.00;;;15.50
80581;BMP180;1474;51.460;7.150;2023-11-19T01:37:32;99905.00;;;15.50
80581;BMP180;1474;51.460;7.150;2023-11-19T01:39:58;99892.00;;;15.50
80581;BMP180;1474;51.460;7.150;2023-11-19T01:42:23;99898.00;;;15.50
80581;BMP180;1474;51.460;7.150;2023-11-19T01:44:58;99898.00;;;15.50
80581;BMP180;1474;51.460;7.150;2023-11-19T01:47:26;99893.00;;;15.50
80581;BMP180;1474;51.460;7.150;2023-11-19T01:49:52;99882.00;;;15.50
80581;BMP180;1474;51.460;7.150;2023-11-19T01:52:19;99880.00;;;15.50
80581;BMP180;1474;51.460;7.150;2023-11-19T01:54:46;99878.00;;;15.50
80581;BMP180;1474;51.460;7.150;2023-11-19T01:57:13;99875.00;;;15.50
80581;BMP180;1474;51.460;7.150;2023-11-19T01:59:39;99872.00;;;15.50
80581;BMP180;1474;51.460;7.150;2023-11-19T02:02:06;99880.00;;;15.50
80581;BMP180;1474;51.460;7.150;2023-11-19T02:04:33;99873.00;;;15.50
80581;BMP180;1474;51.460;7.150;2023-11-19T02:07:00;99859.00;;;15.50
80581;BMP180;1474;51.460;7.150;2023-11-19T02:09:26;99864.00;;;15.50
80581;BMP180;1474;51.460;7.150;2023-11-19T02:11:53;99877.00;;;15.50
80581;BMP180;1474;51.460;7.150;2023-11-19T02:14:25;99875.00;;;15.50
80581;BMP180;1474;51.460;7.150;2023-11-19T02:16:52;99863.00;;;15.50
80581;BMP180;1474;51.460;7.150;2023-11-19T02:19:21;99854.00;;;15.50
80581;BMP180;1474;51.460;7.150;2023-11-19T02:21:46;99833.00;;;15.50
80581;BMP180;1474;51.460;7.150;2023-11-19T02:24:14;99822.00;;;15.50
80581;BMP180;1474;51.460;7.150;2023-11-19T02:27:11;99824.00;;;15.50
80581;BMP180;1474;51.460;7.150;2023-11-19T02:29:41;99832.00;;;15.50
80581;BMP180;1474;51.460;7.150;2023-11-19T02:32:08;99835.00;;;15.50
80581;BMP180;1474;51.460;7.150;2023-11-19T02:34:35;99830.00;;;15.50
80581;BMP180;1474;51.460;7.150;2023-11-19T02:37:01;99822.00;;;15.50
80581;BMP180;1474;51.460;7.150;2023-11-19T02:39:26;99824.00;;;15.50
80581;BMP180;1474;51.460;7.150;2023-11-19T02:41:52;99820.00;;;15.50
80581;BMP180;1474;51.460;7.150;2023-11-19T02:44:18;99821.00;;;15.50
80581;BMP180;1474;51.460;7.150;2023-11-19T02:46:44;99832.00;;;15.50
80581;BMP180;1474;51.460;7.150;2023-11-19T02:49:10;99824.00;;;15.50
80581;BMP180;1474;51.460;7.150;2023-11-19T02:51:36;99829.00;;;15.50
80581;BMP180;1474;51.460;7.150;2023-11-19T02:54:02;99813.00;;;15.50
80581;BMP180;1474;51.460;7.150;2023-11-19T02:56:29;99826.00;;;15.60
80581;BMP180;1474;51.460;7.150;2023-11-19T02:59:00;99826.00;;;15.50
80581;BMP180;1474;51.460;7.150;2023-11-19T03:01:33;99826.00;;;15.50
80581;BMP180;1474;51.460;7.150;2023-11-19T03:04:01;99817.00;;;15.60
80581;BMP180;1474;51.460;7.150;2023-11-19T03:06:27;99817.00;;;15.50
80581;BMP180;1474;51.460;7.150;2023-11-19T03:08:55;99822.00;;;15.50
80581;BMP180;1474;51.460;7.150;2023-11-19T03:11:21;99826.00;;;15.60
80581;BMP180;1474;51.460;7.150;2023-11-19T03:13:46;99811.00;;;15.60
80581;BMP180;1474;51.460;7.150;2023-11-19T03:16:12;99809.00;;;15.50
80581;BMP180;1474;51.460;7.150;2023-11-19T03:18:39;99809.00;;;15.50
80581;BMP180;1474;51.460;7.150;2023-11-19T03:21:08;99809.00;;;15.60
80581;BMP180;1474;51.460;7.150;2023-11-19T03:23:34;99795.00;;;15.50
80581;BMP180;1474;51.460;7.150;2023-11-19T03:26:01;99780.00;;;15.60
80581;BMP180;1474;51.460;7.150;2023-11-19T03:28:30;99792.00;;;15.60
80581;BMP180;1474;51.460;7.150;2023-11-19T03:30:56;99792.00;;;15.60
80581;BMP180;1474;51.460;7.150;2023-11-19T03:33:22;99792.00;;;15.60
80581;BMP180;1474;51.460;7.150;2023-11-19T03:35:48;99807.00;;;15.60
80581;BMP180;1474;51.460;7.150;2023-11-19T03:38:13;99806.00;;;15.60
80581;BMP180;1474;51.460;7.150;2023-11-19T03:40:40;99804.00;;;15.60
80581;BMP180;1474;51.460;7.150;2023-11-19T03:43:06;99805.00;;;15.60
80581;BMP180;1474;51.460;7.150;2023-11-19T03:45:32;99804.00;;;15.60
80581;BMP180;1474;51.460;7.150;2023-11-19T03:47:57;99813.00;;;15.60
80581;BMP180;1474;51.460;7.150;2023-11-19T03:50:23;99811.00;;;15.60
80581;BMP180;1474;51.460;7.150;2023-11-19T03:52:49;99818.00;;;15.60
80581;BMP180;1474;51.460;7.150;2023-11-19T03:55:15;99808.00;;;15.60
80581;BMP180;1474;51.460;7.150;2023-11-19T03:57:41;99811.00;;;15.60
80581;BMP180;1474;51.460;7.150;2023-11-19T04:00:07;99834.00;;;15.60
80581;BMP180;1474;51.460;7.150;2023-11-19T04:02:38;99817.00;;;15.60
80581;BMP180;1474;51.460;7.150;2023-11-19T04:05:05;99831.00;;;15.60
80581;BMP180;1474;51.460;7.150;2023-11-19T04:07:33;99804.00;;;15.60
80581;BMP180;1474;51.460;7.150;2023-11-19T04:09:59;99819.00;;;15.60
80581;BMP180;1474;51.460;7.150;2023-11-19T04:12:25;99826.00;;;15.60
80581;BMP180;1474;51.460;7.150;2023-11-19T04:14:51;99813.00;;;15.60
80581;BMP180;1474;51.460;7.150;2023-11-19T04:17:17;99813.00;;;15.60
80581;BMP180;1474;51.460;7.150;2023-11-19T04:19:43;99808.00;;;15.60
80581;BMP180;1474;51.460;7.150;2023-11-19T04:22:09;99833.00;;;15.60
80581;BMP180;1474;51.460;7.150;2023-11-19T04:24:35;99819.00;;;15.60
80581;BMP180;1474;51.460;7.150;2023-11-19T04:27:01;99819.00;;;15.60
80581;BMP180;1474;51.460;7.150;2023-11-19T04:29:27;99827.00;;;15.60
80581;BMP180;1474;51.460;7.150;2023-11-19T04:31:52;99832.00;;;15.60
80581;BMP180;1474;51.460;7.150;2023-11-19T04:34:18;99827.00;;;15.60
80581;BMP180;1474;51.460;7.150;2023-11-19T04:36:44;99830.00;;;15.60
80581;BMP180;1474;51.460;7.150;2023-11-19T04:39:10;99839.00;;;15.60
80581;BMP180;1474;51.460;7.150;2023-11-19T04:41:51;99831.00;;;15.60
80581;BMP180;1474;51.460;7.150;2023-11-19T04:44:20;99832.00;;;15.60
80581;BMP180;1474;51.460;7.150;2023-11-19T04:46:46;99836.00;;;15.60
80581;BMP180;1474;51.460;7.150;2023-11-19T04:49:13;99829.00;;;15.60
80581;BMP180;1474;51.460;7.150;2023-11-19T04:51:44;99837.00;;;15.60
80581;BMP180;1474;51.460;7.150;2023-11-19T04:54:10;99844.00;;;15.60
80581;BMP180;1474;51.460;7.150;2023-11-19T04:56:37;99835.00;;;15.60
80581;BMP180;1474;51.460;7.150;2023-11-19T04:59:04;99844.00;;;15.60
80581;BMP180;1474;51.460;7.150;2023-11-19T05:01:32;99861.00;;;15.60
80581;BMP180;1474;51.460;7.150;2023-11-19T05:03:57;99847.00;;;15.60
80581;BMP180;1474;51.460;7.150;2023-11-19T05:06:27;99842.00;;;15.60
80581;BMP180;1474;51.460;7.150;2023-11-19T05:08:54;99853.00;;;15.60
80581;BMP180;1474;51.460;7.150;2023-11-19T05:11:20;99855.00;;;15.60
80581;BMP180;1474;51.460;7.150;2023-11-19T05:13:46;99840.00;;;15.60
80581;BMP180;1474;51.460;7.150;2023-11-19T05:16:12;99863.00;;;15.60
80581;BMP180;1474;51.460;7.150;2023-11-19T05:18:40;99860.00;;;15.60
80581;BMP180;1474;51.460;7.150;2023-11-19T05:21:06;99852.00;;;15.60
80581;BMP180;1474;51.460;7.150;2023-11-19T05:23:33;99842.00;;;15.60
80581;BMP180;1474;51.460;7.150;2023-11-19T05:26:02;99837.00;;;15.60
80581;BMP180;1474;51.460;7.150;2023-11-19T05:28:28;99848.00;;;15.60
80581;BMP180;1474;51.460;7.150;2023-11-19T05:30:54;99842.00;;;15.60
80581;BMP180;1474;51.460;7.150;2023-11-19T05:33:19;99848.00;;;15.60
80581;BMP180;1474;51.460;7.150;2023-11-19T05:35:45;99838.00;;;15.60
80581;BMP180;1474;51.460;7.150;2023-11-19T05:38:11;99830.00;;;15.60
80581;BMP180;1474;51.460;7.150;2023-11-19T05:40:37;99843.00;;;15.60
80581;BMP180;1474;51.460;7.150;2023-11-19T05:43:04;99842.00;;;15.60
80581;BMP180;1474;51.460;7.150;2023-11-19T05:45:31;99849.00;;;15.60
80581;BMP180;1474;51.460;7.150;2023-11-19T05:47:57;99846.00;;;15.60
80581;BMP180;1474;51.460;7.150;2023-11-19T05:50:23;99846.00;;;15.60
80581;BMP180;1474;51.460;7.150;2023-11-19T05:52:50;99841.00;;;15.60
80581;BMP180;1474;51.460;7.150;2023-11-19T05:55:15;99844.00;;;15.60
80581;BMP180;1474;51.460;7.150;2023-11-19T05:57:41;99848.00;;;15.60
80581;BMP180;1474;51.460;7.150;2023-11-19T06:00:08;99854.00;;;15.60
80581;BMP180;1474;51.460;7.150;2023-11-19T06:02:36;99865.00;;;15.60
80581;BMP180;1474;51.460;7.150;2023-11-19T06:05:04;99848.00;;;15.60
80581;BMP180;1474;51.460;7.150;2023-11-19T06:07:35;99860.00;;;15.60
80581;BMP180;1474;51.460;7.150;2023-11-19T06:10:02;99837.00;;;15.60
80581;BMP180;1474;51.460;7.150;2023-11-19T06:12:30;99849.00;;;15.60
80581;BMP180;1474;51.460;7.150;2023-11-19T06:14:57;99843.00;;;15.60
80581;BMP180;1474;51.460;7.150;2023-11-19T06:17:23;99847.00;;;15.60
80581;BMP180;1474;51.460;7.150;2023-11-19T06:19:48;99853.00;;;15.60
80581;BMP180;1474;51.460;7.150;2023-11-19T06:22:14;99853.00;;;15.60
80581;BMP180;1474;51.460;7.150;2023-11-19T06:24:40;99847.00;;;15.60
80581;BMP180;1474;51.460;7.150;2023-11-19T06:27:05;99852.00;;;15.60
80581;BMP180;1474;51.460;7.150;2023-11-19T06:29:31;99858.00;;;15.60
80581;BMP180;1474;51.460;7.150;2023-11-19T06:31:57;99864.00;;;15.60
80581;BMP180;1474;51.460;7.150;2023-11-19T06:34:22;99875.00;;;15.60
80581;BMP180;1474;51.460;7.150;2023-11-19T06:36:48;99869.00;;;15.60
80581;BMP180;1474;51.460;7.150;2023-11-19T06:39:14;99869.00;;;15.60
80581;BMP180;1474;51.460;7.150;2023-11-19T06:41:45;99873.00;;;15.60
80581;BMP180;1474;51.460;7.150;2023-11-19T06:44:12;99874.00;;;15.60
80581;BMP180;1474;51.460;7.150;2023-11-19T06:46:37;99863.00;;;15.60
80581;BMP180;1474;51.460;7.150;2023-11-19T06:49:03;99869.00;;;15.60
80581;BMP180;1474;51.460;7.150;2023-11-19T06:51:29;99875.00;;;15.60
80581;BMP180;1474;51.460;7.150;2023-11-19T06:53:55;99889.00;;;15.60
80581;BMP180;1474;51.460;7.150;2023-11-19T06:56:22;99884.00;;;15.60
80581;BMP180;1474;51.460;7.150;2023-11-19T06:58:50;99877.00;;;15.60
80581;BMP180;1474;51.460;7.150;2023-11-19T07:01:16;99885.00;;;15.60
80581;BMP180;1474;51.460;7.150;2023-11-19T07:03:47;99896.00;;;15.60
80581;BMP180;1474;51.460;7.150;2023-11-19T07:06:14;99891.00;;;15.60
80581;BMP180;1474;51.460;7.150;2023-11-19T07:08:41;99886.00;;;15.60
80581;BMP180;1474;51.460;7.150;2023-11-19T07:11:11;99890.00;;;15.60
80581;BMP180;1474;51.460;7.150;2023-11-19T07:13:37;99900.00;;;15.60
80581;BMP180;1474;51.460;7.150;2023-11-19T07:16:04;99895.00;;;15.60
80581;BMP180;1474;51.460;7.150;2023-11-19T07:18:30;99900.00;;;15.60
80581;BMP180;1474;51.460;7.150;2023-11-19T07:20:57;99900.00;;;15.60
80581;BMP180;1474;51.460;7.150;2023-11-19T07:23:24;99897.00;;;15.60
80581;BMP180;1474;51.460;7.150;2023-11-19T07:25:51;99899.00;;;15.60
80581;BMP180;1474;51.460;7.150;2023-11-19T07:28:19;99897.00;;;15.60
80581;BMP180;1474;51.460;7.150;2023-11-19T07:30:44;99911.00;;;15.60
80581;BMP180;1474;51.460;7.150;2023-11-19T07:33:10;99906.00;;;15.60
80581;BMP180;1474;51.460;7.150;2023-11-19T07:35:36;99918.00;;;15.60
80581;BMP180;1474;51.460;7.150;2023-11-19T07:38:01;99924.00;;;15.60
80581;BMP180;1474;51.460;7.150;2023-11-19T07:40:27;99928.00;;;15.60
80581;BMP180;1474;51.460;7.150;2023-11-19T07:42:54;99936.00;;;15.70
80581;BMP180;1474;51.460;7.150;2023-11-19T07:45:19;99939.00;;;15.70
80581;BMP180;1474;51.460;7.150;2023-11-19T07:47:45;99943.00;;;15.70
80581;BMP180;1474;51.460;7.150;2023-11-19T07:50:11;99945.00;;;15.70
80581;BMP180;1474;51.460;7.150;2023-11-19T07:52:39;99952.00;;;15.70
80581;BMP180;1474;51.460;7.150;2023-11-19T07:55:06;99960.00;;;15.70
80581;BMP180;1474;51.460;7.150;2023-11-19T07:57:31;99955.00;;;15.70
80581;BMP180;1474;51.460;7.150;2023-11-19T07:59:58;99945.00;;;15.70
80581;BMP180;1474;51.460;7.150;2023-11-19T08:02:23;99951.00;;;15.70
80581;BMP180;1474;51.460;7.150;2023-11-19T08:04:50;99955.00;;;15.70
80581;BMP180;1474;51.460;7.150;2023-11-19T08:07:18;99957.00;;;15.70
80581;BMP180;1474;51.460;7.150;2023-11-19T08:09:45;99960.00;;;15.70
80581;BMP180;1474;51.460;7.150;2023-11-19T08:12:10;99973.00;;;15.70
80581;BMP180;1474;51.460;7.150;2023-11-19T08:14:36;99968.00;;;15.80
80581;BMP180;1474;51.460;7.150;2023-11-19T08:17:05;99969.00;;;15.80
80581;BMP180;1474;51.460;7.150;2023-11-19T08:19:31;99972.00;;;15.70
80581;BMP180;1474;51.460;7.150;2023-11-19T08:21:56;99976.00;;;15.80
80581;BMP180;1474;51.460;7.150;2023-11-19T08:24:22;99979.00;;;15.80
80581;BMP180;1474;51.460;7.150;2023-11-19T08:26:48;99981.00;;;15.80
80581;BMP180;1474;51.460;7.150;2023-11-19T08:29:13;99981.00;;;15.80
80581;BMP180;1474;51.460;7.150;2023-11-19T08:31:39;99984.00;;;15.80
80581;BMP180;1474;51.460;7.150;2023-11-19T08:34:05;99980.00;;;15.80
80581;BMP180;1474;51.460;7.150;2023-11-19T08:36:35;99986.00;;;15.80
80581;BMP180;1474;51.460;7.150;2023-11-19T08:39:00;99978.00;;;15.80
80581;BMP180;1474;51.460;7.150;2023-11-19T08:41:26;99988.00;;;15.90
80581;BMP180;1474;51.460;7.150;2023-11-19T08:43:52;99986.00;;;15.90
80581;BMP180;1474;51.460;7.150;2023-11-19T08:46:18;99971.00;;;15.90
80581;BMP180;1474;51.460;7.150;2023-11-19T08:48:44;99983.00;;;15.80
80581;BMP180;1474;51.460;7.150;2023-11-19T08:51:10;99975.00;;;15.80
80581;BMP180;1474;51.460;7.150;2023-11-19T08:53:36;99971.00;;;15.80
80581;BMP180;1474;51.460;7.150;2023-11-19T08:56:02;99971.00;;;15.80
80581;BMP180;1474;51.460;7.150;2023-11-19T08:58:28;99980.00;;;15.80
80581;BMP180;1474;51.460;7.150;2023-11-19T09:00:54;99976.00;;;15.90
80581;BMP180;1474;51.460;7.150;2023-11-19T09:03:20;99988.00;;;16.00
80581;BMP180;1474;51.460;7.150;2023-11-19T09:05:46;99981.00;;;16.00
80581;BMP180;1474;51.460;7.150;2023-11-19T09:08:12;99995.00;;;16.00
80581;BMP180;1474;51.460;7.150;2023-11-19T09:10:38;99985.00;;;16.00
80581;BMP180;1474;51.460;7.150;2023-11-19T09:13:04;99983.00;;;16.00
80581;BMP180;1474;51.460;7.150;2023-11-19T09:15:29;99992.00;;;16.00
80581;BMP180;1474;51.460;7.150;2023-11-19T09:17:55;99994.00;;;16.00
80581;BMP180;1474;51.460;7.150;2023-11-19T09:20:21;99985.00;;;16.10
80581;BMP180;1474;51.460;7.150;2023-11-19T09:22:47;99979.00;;;15.30
80581;BMP180;1474;51.460;7.150;2023-11-19T09:25:14;99984.00;;;14.90
80581;BMP180;1474;51.460;7.150;2023-11-19T09:27:43;99988.00;;;14.80
80581;BMP180;1474;51.460;7.150;2023-11-19T09:30:09;99976.00;;;14.70
80581;BMP180;1474;51.460;7.150;2023-11-19T09:32:35;99981.00;;;14.90
80581;BMP180;1474;51.460;7.150;2023-11-19T09:35:03;99977.00;;;14.70
80581;BMP180;1474;51.460;7.150;2023-11-19T09:37:29;99983.00;;;15.00
80581;BMP180;1474;51.460;7.150;2023-11-19T09:39:55;99989.00;;;15.40
80581;BMP180;1474;51.460;7.150;2023-11-19T09:42:21;99976.00;;;15.70
80581;BMP180;1474;51.460;7.150;2023-11-19T09:44:48;99981.00;;;15.80
80581;BMP180;1474;51.460;7.150;2023-11-19T09:47:16;99992.00;;;15.80
80581;BMP180;1474;51.460;7.150;2023-11-19T09:49:44;99977.00;;;15.30
80581;BMP180;1474;51.460;7.150;2023-11-19T09:52:10;99980.00;;;15.10
80581;BMP180;1474;51.460;7.150;2023-11-19T09:54:36;99976.00;;;15.30
80581;BMP180;1474;51.460;7.150;2023-11-19T09:57:02;99970.00;;;15.60
80581;BMP180;1474;51.460;7.150;2023-11-19T09:59:30;99985.00;;;15.80
80581;BMP180;1474;51.460;7.150;2023-11-19T10:01:57;99977.00;;;16.00
80581;BMP180;1474;51.460;7.150;2023-11-19T10:04:23;99969.00;;;16.10
80581;BMP180;1474;51.460;7.150;2023-11-19T10:06:52;99971.00;;;16.20
80581;BMP180;1474;51.460;7.150;2023-11-19T10:09:18;99981.00;;;16.20
80581;BMP180;1474;51.460;7.150;2023-11-19T10:11:44;99979.00;;;16.10
80581;BMP180;1474;51.460;7.150;2023-11-19T10:14:10;99976.00;;;16.10
80581;BMP180;1474;51.460;7.150;2023-11-19T10:16:36;99979.00;;;16.10
80581;BMP180;1474;51.460;7.150;2023-11-19T10:19:03;99974.00;;;16.00
80581;BMP180;1474;51.460;7.150;2023-11-19T10:21:32;99977.00;;;16.10
80581;BMP180;1474;51.460;7.150;2023-11-19T10:23:59;99971.00;;;16.10
80581;BMP180;1474;51.460;7.150;2023-11-19T10:26:27;99971.00;;;16.00
80581;BMP180;1474;51.460;7.150;2023-11-19T10:28:55;99979.00;;;16.00
80581;BMP180;1474;51.460;7.150;2023-11-19T10:31:21;99977.00;;;16.00
80581;BMP180;1474;51.460;7.150;2023-11-19T10:33:51;99969.00;;;15.90
80581;BMP180;1474;51.460;7.150;2023-11-19T10:36:17;99980.00;;;15.90
80581;BMP180;1474;51.460;7.150;2023-11-19T10:38:56;99963.00;;;15.80
80581;BMP180;1474;51.460;7.150;2023-11-19T10:41:30;99976.00;;;15.90
80581;BMP180;1474;51.460;7.150;2023-11-19T10:44:00;99967.00;;;15.90
80581;BMP180;1474;51.460;7.150;2023-11-19T10:46:42;99963.00;;;16.00
80581;BMP180;1474;51.460;7.150;2023-11-19T10:49:09;99958.00;;;15.90
80581;BMP180;1474;51.460;7.150;2023-11-19T10:51:36;99955.00;;;15.90
80581;BMP180;1474;51.460;7.150;2023-11-19T10:54:04;99958.00;;;15.90
80581;BMP180;1474;51.460;7.150;2023-11-19T10:56:34;99967.00;;;15.90
80581;BMP180;1474;51.460;7.150;2023-11-19T10:59:01;99972.00;;;16.00
80581;BMP180;1474;51.460;7.150;2023-11-19T11:01:52;99974.00;;;15.90
80581;BMP180;1474;51.460;7.150;2023-11-19T11:04:31;99957.00;;;15.90
80581;BMP180;1474;51.460;7.150;2023-11-19T11:07:00;99968.00;;;15.90
80581;BMP180;1474;51.460;7.150;2023-11-19T11:09:31;99949.00;;;15.80
80581;BMP180;1474;51.460;7.150;2023-11-19T11:11:59;99945.00;;;15.90
80581;BMP180;1474;51.460;7.150;2023-11-19T11:14:27;99955.00;;;15.90
80581;BMP180;1474;51.460;7.150;2023-11-19T11:16:54;99940.00;;;15.90
80581;BMP180;1474;51.460;7.150;2023-11-19T11:19:22;99949.00;;;15.80
80581;BMP180;1474;51.460;7.150;2023-11-19T11:21:53;99943.00;;;15.80
80581;BMP180;1474;51.460;7.150;2023-11-19T11:30:35;99946.00;;;15.80
80581;BMP180;1474;51.460;7.150;2023-11-19T11:33:28;99949.00;;;15.80
80581;BMP180;1474;51.460;7.150;2023-11-19T11:38:40;99943.00;;;15.70
80581;BMP180;1474;51.460;7.150;2023-11-19T11:41:20;99943.00;;;15.90
80581;BMP180;1474;51.460;7.150;2023-11-19T11:43:55;99948.00;;;16.00
80581;BMP180;1474;51.460;7.150;2023-11-19T11:49:08;99921.00;;;16.30
80581;BMP180;1474;51.460;7.150;2023-11-19T11:54:27;99929.00;;;16.00
80581;BMP180;1474;51.460;7.150;2023-11-19T11:57:12;99922.00;;;15.70
80581;BMP180;1474;51.460;7.150;2023-11-19T12:02:12;99924.00;;;15.40
80581;BMP180;1474;51.460;7.150;2023-11-19T12:04:43;99924.00;;;15.40
80581;BMP180;1474;51.460;7.150;2023-11-19T12:07:22;99912.00;;;15.30
80581;BMP180;1474;51.460;7.150;2023-11-19T12:10:05;99901.00;;;15.20
80581;BMP180;1474;51.460;7.150;2023-11-19T12:12:33;99908.00;;;15.30
80581;BMP180;1474;51.460;7.150;2023-11-19T12:15:05;99903.00;;;15.30
80581;BMP180;1474;51.460;7.150;2023-11-19T12:20:02;99916.00;;;15.50
80581;BMP180;1474;51.460;7.150;2023-11-19T12:22:28;99920.00;;;15.30
80581;BMP180;1474;51.460;7.150;2023-11-19T12:24:54;99906.00;;;15.20
80581;BMP180;1474;51.460;7.150;2023-11-19T12:27:21;99912.00;;;15.10
80581;BMP180;1474;51.460;7.150;2023-11-19T12:29:48;99907.00;;;15.20
80581;BMP180;1474;51.460;7.150;2023-11-19T12:32:15;99907.00;;;15.20
80581;BMP180;1474;51.460;7.150;2023-11-19T12:34:41;99896.00;;;15.10
80581;BMP180;1474;51.460;7.150;2023-11-19T12:37:07;99888.00;;;15.20
80581;BMP180;1474;51.460;7.150;2023-11-19T12:39:34;99880.00;;;15.30
80581;BMP180;1474;51.460;7.150;2023-11-19T12:42:00;99877.00;;;15.60
80581;BMP180;1474;51.460;7.150;2023-11-19T12:44:26;99880.00;;;15.80
80581;BMP180;1474;51.460;7.150;2023-11-19T12:47:06;99881.00;;;15.80
80581;BMP180;1474;51.460;7.150;2023-11-19T12:49:35;99884.00;;;15.80
80581;BMP180;1474;51.460;7.150;2023-11-19T12:52:01;99893.00;;;15.70
80581;BMP180;1474;51.460;7.150;2023-11-19T12:54:36;99877.00;;;15.70
80581;BMP180;1474;51.460;7.150;2023-11-19T12:57:03;99881.00;;;15.70
80581;BMP180;1474;51.460;7.150;2023-11-19T12:59:31;99865.00;;;15.60
80581;BMP180;1474;51.460;7.150;2023-11-19T13:01:57;99877.00;;;15.60
80581;BMP180;1474;51.460;7.150;2023-11-19T13:04:28;99889.00;;;15.60
80581;BMP180;1474;51.460;7.150;2023-11-19T13:06:54;99886.00;;;15.60
80581;BMP180;1474;51.460;7.150;2023-11-19T13:09:27;99897.00;;;15.60
80581;BMP180;1474;51.460;7.150;2023-11-19T13:11:55;99894.00;;;15.70
80581;BMP180;1474;51.460;7.150;2023-11-19T13:14:22;99896.00;;;15.70
80581;BMP180;1474;51.460;7.150;2023-11-19T13:16:49;99904.00;;;15.70
80581;BMP180;1474;51.460;7.150;2023-11-19T13:19:15;99908.00;;;15.70
80581;BMP180;1474;51.460;7.150;2023-11-19T13:21:45;99906.00;;;15.60
80581;BMP180;1474;51.460;7.150;2023-11-19T13:24:13;99906.00;;;15.70
80581;BMP180;1474;51.460;7.150;2023-11-19T13:26:39;99899.00;;;15.70
80581;BMP180;1474;51.460;7.150;2023-11-19T13:29:05;99895.00;;;15.80
80581;BMP180;1474;51.460;7.150;2023-11-19T13:31:31;99897.00;;;15.80
80581;BMP180;1474;51.460;7.150;2023-11-19T13:33:57;99902.00;;;15.80
80581;BMP180;1474;51.460;7.150;2023-11-19T13:36:24;99895.00;;;15.80
80581;BMP180;1474;51.460;7.150;2023-11-19T13:38:51;99892.00;;;15.80
80581;BMP180;1474;51.460;7.150;2023-11-19T13:41:17;99884.00;;;15.80
80581;BMP180;1474;51.460;7.150;2023-11-19T13:43:43;99883.00;;;15.90
80581;BMP180;1474;51.460;7.150;2023-11-19T13:46:09;99884.00;;;16.00
80581;BMP180;1474;51.460;7.150;2023-11-19T13:48:35;99890.00;;;15.90
80581;BMP180;1474;51.460;7.150;2023-11-19T13:51:01;99889.00;;;16.00
80581;BMP180;1474;51.460;7.150;2023-11-19T13:53:27;99891.00;;;16.00
80581;BMP180;1474;51.460;7.150;2023-11-19T13:55:52;99880.00;;;16.00
80581;BMP180;1474;51.460;7.150;2023-11-19T13:58:18;99877.00;;;16.00
80581;BMP180;1474;51.460;7.150;2023-11-19T14:00:44;99887.00;;;16.00
80581;BMP180;1474;51.460;7.150;2023-11-19T14:03:10;99871.00;;;15.90
80581;BMP180;1474;51.460;7.150;2023-11-19T14:05:37;99876.00;;;15.90
80581;BMP180;1474;51.460;7.150;2023-11-19T14:08:04;99872.00;;;16.00
80581;BMP180;1474;51.460;7.150;2023-11-19T14:10:39;99870.00;;;16.00
80581;BMP180;1474;51.460;7.150;2023-11-19T14:13:08;99868.00;;;16.00
80581;BMP180;1474;51.460;7.150;2023-11-19T14:15:34;99863.00;;;15.90
80581;BMP180;1474;51.460;7.150;2023-11-19T14:18:01;99875.00;;;15.90
80581;BMP180;1474;51.460;7.150;2023-11-19T14:20:28;99868.00;;;15.90
80581;BMP180;1474;51.460;7.150;2023-11-19T14:22:54;99877.00;;;15.90
80581;BMP180;1474;51.460;7.150;2023-11-19T14:25:20;99874.00;;;15.90
80581;BMP180;1474;51.460;7.150;2023-11-19T14:27:46;99876.00;;;15.80
80581;BMP180;1474;51.460;7.150;2023-11-19T14:30:13;99874.00;;;15.80
80581;BMP180;1474;51.460;7.150;2023-11-19T14:32:41;99895.00;;;15.80
80581;BMP180;1474;51.460;7.150;2023-11-19T14:35:09;99876.00;;;15.80
80581;BMP180;1474;51.460;7.150;2023-11-19T14:37:35;99885.00;;;15.80
80581;BMP180;1474;51.460;7.150;2023-11-19T14:40:02;99877.00;;;15.80
80581;BMP180;1474;51.460;7.150;2023-11-19T14:42:32;99874.00;;;15.80